sensor_id;sensor_type;location;lat;lon;timestamp;P1;durP1;ratioP1;P2;durP2;ratioP2
71187;SDS011;58893;53.130;8.158;2023-04-03T00:02:16;1.30;;;1.07;;
71187;SDS011;58893;53.130;8.158;2023-04-03T00:04:42;1.00;;;0.87;;
71187;SDS011;58893;53.130;8.158;2023-04-03T00:07:08;4.93;;;1.37;;
71187;SDS011;58893;53.130;8.158;2023-04-03T00:09:33;2.40;;;1.03;;
71187;SDS011;58893;53.130;8.158;2023-04-03T00:11:59;2.97;;;1.27;;
71187;SDS011;58893;53.130;8.158;2023-04-03T00:14:25;5.50;;;1.20;;
71187;SDS011;58893;53.130;8.158;2023-04-03T00:16:51;2.67;;;1.40;;
71187;SDS011;58893;53.130;8.158;2023-04-03T00:19:16;12.30;;;1.60;;
71187;SDS011;58893;53.130;8.158;2023-04-03T00:21:42;4.50;;;1.33;;
71187;SDS011;58893;53.130;8.158;2023-04-03T00:24:07;3.30;;;1.10;;
71187;SDS011;58893;53.130;8.158;2023-04-03T00:26:33;3.00;;;1.07;;
71187;SDS011;58893;53.130;8.158;2023-04-03T00:28:58;4.77;;;1.70;;
71187;SDS011;58893;53.130;8.158;2023-04-03T00:31:24;3.83;;;1.13;;
71187;SDS011;58893;53.130;8.158;2023-04-03T00:33:50;5.50;;;1.43;;
71187;SDS011;58893;53.130;8.158;2023-04-03T00:36:15;1.27;;;0.93;;
71187;SDS011;58893;53.130;8.158;2023-04-03T00:38:44;3.70;;;1.00;;
71187;SDS011;58893;53.130;8.158;2023-04-03T00:41:10;3.27;;;0.93;;
71187;SDS011;58893;53.130;8.158;2023-04-03T00:43:36;4.80;;;1.40;;
71187;SDS011;58893;53.130;8.158;2023-04-03T00:46:01;7.53;;;1.47;;
71187;SDS011;58893;53.130;8.158;2023-04-03T00:48:31;2.93;;;1.40;;
71187;SDS011;58893;53.130;8.158;2023-04-03T00:51:06;1.87;;;1.30;;
71187;SDS011;58893;53.130;8.158;2023-04-03T00:53:39;5.33;;;1.70;;
71187;SDS011;58893;53.130;8.158;2023-04-03T00:56:10;2.00;;;1.03;;
71187;SDS011;58893;53.130;8.158;2023-04-03T00:58:41;2.87;;;1.10;;
71187;SDS011;58893;53.130;8.158;2023-04-03T01:01:14;1.90;;;1.00;;
71187;SDS011;58893;53.130;8.158;2023-04-03T01:03:43;2.93;;;1.60;;
71187;SDS011;58893;53.130;8.158;2023-04-03T01:06:09;1.47;;;1.00;;
71187;SDS011;58893;53.130;8.158;2023-04-03T01:08:35;4.63;;;1.10;;
71187;SDS011;58893;53.130;8.158;2023-04-03T01:11:01;3.57;;;1.37;;
71187;SDS011;58893;53.130;8.158;2023-04-03T01:13:28;2.77;;;1.40;;
71187;SDS011;58893;53.130;8.158;2023-04-03T01:15:55;1.53;;;1.10;;
71187;SDS011;58893;53.130;8.158;2023-04-03T01:18:22;4.43;;;1.87;;
71187;SDS011;58893;53.130;8.158;2023-04-03T01:23:30;6.47;;;1.60;;
71187;SDS011;58893;53.130;8.158;2023-04-03T01:26:04;2.90;;;0.80;;
71187;SDS011;58893;53.130;8.158;2023-04-03T01:28:31;1.57;;;0.90;;
71187;SDS011;58893;53.130;8.158;2023-04-03T01:33:37;2.73;;;1.30;;
71187;SDS011;58893;53.130;8.158;2023-04-03T01:36:03;3.17;;;1.90;;
71187;SDS011;58893;53.130;8.158;2023-04-03T01:38:29;1.57;;;0.90;;
71187;SDS011;58893;53.130;8.158;2023-04-03T01:40:55;6.83;;;1.57;;
71187;SDS011;58893;53.130;8.158;2023-04-03T01:43:21;3.70;;;1.33;;
71187;SDS011;58893;53.130;8.158;2023-04-03T01:45:47;2.17;;;1.03;;
71187;SDS011;58893;53.130;8.158;2023-04-03T01:48:14;7.80;;;1.57;;
71187;SDS011;58893;53.130;8.158;2023-04-03T01:50:40;2.33;;;1.80;;
71187;SDS011;58893;53.130;8.158;2023-04-03T01:53:06;4.77;;;1.40;;
71187;SDS011;58893;53.130;8.158;2023-04-03T01:55:31;6.60;;;1.20;;
71187;SDS011;58893;53.130;8.158;2023-04-03T01:57:57;2.50;;;1.30;;
71187;SDS011;58893;53.130;8.158;2023-04-03T02:00:23;3.00;;;1.20;;
71187;SDS011;58893;53.130;8.158;2023-04-03T02:02:48;1.90;;;0.97;;
71187;SDS011;58893;53.130;8.158;2023-04-03T02:05:14;0.90;;;0.90;;
71187;SDS011;58893;53.130;8.158;2023-04-03T02:07:40;1.17;;;0.90;;
71187;SDS011;58893;53.130;8.158;2023-04-03T02:10:06;2.40;;;1.20;;
71187;SDS011;58893;53.130;8.158;2023-04-03T02:12:32;7.23;;;1.37;;
71187;SDS011;58893;53.130;8.158;2023-04-03T02:14:57;6.40;;;1.90;;
71187;SDS011;58893;53.130;8.158;2023-04-03T02:17:23;2.90;;;1.50;;
71187;SDS011;58893;53.130;8.158;2023-04-03T02:19:49;2.30;;;1.50;;
71187;SDS011;58893;53.130;8.158;2023-04-03T02:22:15;1.57;;;0.90;;
71187;SDS011;58893;53.130;8.158;2023-04-03T02:24:40;3.00;;;1.57;;
71187;SDS011;58893;53.130;8.158;2023-04-03T02:27:06;3.73;;;1.63;;
71187;SDS011;58893;53.130;8.158;2023-04-03T02:29:32;4.23;;;1.97;;
71187;SDS011;58893;53.130;8.158;2023-04-03T02:31:58;5.10;;;1.33;;
71187;SDS011;58893;53.130;8.158;2023-04-03T02:34:23;3.10;;;1.17;;
71187;SDS011;58893;53.130;8.158;2023-04-03T02:36:49;1.73;;;1.00;;
71187;SDS011;58893;53.130;8.158;2023-04-03T02:39:15;3.27;;;1.50;;
71187;SDS011;58893;53.130;8.158;2023-04-03T02:41:41;1.87;;;1.40;;
71187;SDS011;58893;53.130;8.158;2023-04-03T02:44:08;5.53;;;1.73;;
71187;SDS011;58893;53.130;8.158;2023-04-03T02:46:35;2.23;;;1.60;;
71187;SDS011;58893;53.130;8.158;2023-04-03T02:49:00;3.93;;;1.40;;
71187;SDS011;58893;53.130;8.158;2023-04-03T02:51:26;10.97;;;2.10;;
71187;SDS011;58893;53.130;8.158;2023-04-03T02:53:52;11.83;;;1.83;;
71187;SDS011;58893;53.130;8.158;2023-04-03T02:56:17;5.63;;;1.00;;
71187;SDS011;58893;53.130;8.158;2023-04-03T02:58:44;4.47;;;1.67;;
71187;SDS011;58893;53.130;8.158;2023-04-03T03:01:10;20.77;;;2.20;;
71187;SDS011;58893;53.130;8.158;2023-04-03T03:03:36;5.30;;;1.60;;
71187;SDS011;58893;53.130;8.158;2023-04-03T03:06:05;2.43;;;1.10;;
71187;SDS011;58893;53.130;8.158;2023-04-03T03:08:33;3.17;;;1.50;;
71187;SDS011;58893;53.130;8.158;2023-04-03T03:11:00;3.00;;;1.80;;
71187;SDS011;58893;53.130;8.158;2023-04-03T03:13:26;4.13;;;1.43;;
71187;SDS011;58893;53.130;8.158;2023-04-03T03:15:52;12.20;;;2.17;;
71187;SDS011;58893;53.130;8.158;2023-04-03T03:18:17;1.77;;;1.37;;
71187;SDS011;58893;53.130;8.158;2023-04-03T03:20:43;1.90;;;1.23;;
71187;SDS011;58893;53.130;8.158;2023-04-03T03:23:09;3.17;;;1.37;;
71187;SDS011;58893;53.130;8.158;2023-04-03T03:25:39;6.10;;;1.57;;
71187;SDS011;58893;53.130;8.158;2023-04-03T03:28:05;2.60;;;1.30;;
71187;SDS011;58893;53.130;8.158;2023-04-03T03:30:31;3.90;;;1.27;;
71187;SDS011;58893;53.130;8.158;2023-04-03T03:32:56;4.10;;;1.70;;
71187;SDS011;58893;53.130;8.158;2023-04-03T03:35:22;4.10;;;1.57;;
71187;SDS011;58893;53.130;8.158;2023-04-03T03:37:48;5.83;;;1.67;;
71187;SDS011;58893;53.130;8.158;2023-04-03T03:40:14;6.63;;;2.50;;
71187;SDS011;58893;53.130;8.158;2023-04-03T03:42:39;6.93;;;1.83;;
71187;SDS011;58893;53.130;8.158;2023-04-03T03:45:05;4.57;;;1.40;;
71187;SDS011;58893;53.130;8.158;2023-04-03T03:47:32;2.60;;;1.43;;
71187;SDS011;58893;53.130;8.158;2023-04-03T03:49:57;3.30;;;1.90;;
71187;SDS011;58893;53.130;8.158;2023-04-03T03:52:23;1.67;;;1.30;;
71187;SDS011;58893;53.130;8.158;2023-04-03T03:54:48;12.47;;;1.73;;
71187;SDS011;58893;53.130;8.158;2023-04-03T03:57:14;4.40;;;2.00;;
71187;SDS011;58893;53.130;8.158;2023-04-03T03:59:40;2.27;;;1.37;;
71187;SDS011;58893;53.130;8.158;2023-04-03T04:02:06;2.70;;;1.60;;
71187;SDS011;58893;53.130;8.158;2023-04-03T04:04:32;6.03;;;1.90;;
71187;SDS011;58893;53.130;8.158;2023-04-03T04:06:58;5.90;;;1.77;;
71187;SDS011;58893;53.130;8.158;2023-04-03T04:09:25;4.97;;;1.57;;
71187;SDS011;58893;53.130;8.158;2023-04-03T04:11:51;4.57;;;1.33;;
71187;SDS011;58893;53.130;8.158;2023-04-03T04:14:17;7.90;;;1.20;;
71187;SDS011;58893;53.130;8.158;2023-04-03T04:16:43;3.60;;;2.10;;
71187;SDS011;58893;53.130;8.158;2023-04-03T04:19:08;5.20;;;2.13;;
71187;SDS011;58893;53.130;8.158;2023-04-03T04:21:34;9.40;;;2.50;;
71187;SDS011;58893;53.130;8.158;2023-04-03T04:24:00;3.30;;;2.07;;
71187;SDS011;58893;53.130;8.158;2023-04-03T04:26:26;1.93;;;1.30;;
71187;SDS011;58893;53.130;8.158;2023-04-03T04:28:51;4.07;;;1.77;;
71187;SDS011;58893;53.130;8.158;2023-04-03T04:31:17;1.83;;;1.30;;
71187;SDS011;58893;53.130;8.158;2023-04-03T04:33:42;4.90;;;1.70;;
71187;SDS011;58893;53.130;8.158;2023-04-03T04:36:08;3.30;;;1.53;;
71187;SDS011;58893;53.130;8.158;2023-04-03T04:38:34;7.20;;;1.70;;
71187;SDS011;58893;53.130;8.158;2023-04-03T04:41:00;7.30;;;2.27;;
71187;SDS011;58893;53.130;8.158;2023-04-03T04:43:26;6.23;;;2.10;;
71187;SDS011;58893;53.130;8.158;2023-04-03T04:46:10;3.13;;;1.33;;
71187;SDS011;58893;53.130;8.158;2023-04-03T04:48:38;4.40;;;1.50;;
71187;SDS011;58893;53.130;8.158;2023-04-03T04:51:05;15.60;;;2.13;;
71187;SDS011;58893;53.130;8.158;2023-04-03T04:53:31;2.40;;;1.57;;
71187;SDS011;58893;53.130;8.158;2023-04-03T04:55:57;4.97;;;2.10;;
71187;SDS011;58893;53.130;8.158;2023-04-03T04:58:22;5.20;;;1.57;;
71187;SDS011;58893;53.130;8.158;2023-04-03T05:00:48;3.90;;;2.10;;
71187;SDS011;58893;53.130;8.158;2023-04-03T05:03:14;4.63;;;1.30;;
71187;SDS011;58893;53.130;8.158;2023-04-03T05:05:39;11.37;;;2.40;;
71187;SDS011;58893;53.130;8.158;2023-04-03T05:08:05;9.17;;;2.40;;
71187;SDS011;58893;53.130;8.158;2023-04-03T05:10:33;5.90;;;1.87;;
71187;SDS011;58893;53.130;8.158;2023-04-03T05:12:59;4.37;;;2.00;;
71187;SDS011;58893;53.130;8.158;2023-04-03T05:15:25;2.40;;;1.60;;
71187;SDS011;58893;53.130;8.158;2023-04-03T05:17:50;2.57;;;1.50;;
71187;SDS011;58893;53.130;8.158;2023-04-03T05:20:16;5.53;;;1.60;;
71187;SDS011;58893;53.130;8.158;2023-04-03T05:22:42;2.20;;;1.70;;
71187;SDS011;58893;53.130;8.158;2023-04-03T05:25:08;5.10;;;1.63;;
71187;SDS011;58893;53.130;8.158;2023-04-03T05:27:34;5.50;;;1.83;;
71187;SDS011;58893;53.130;8.158;2023-04-03T05:30:01;4.90;;;1.80;;
71187;SDS011;58893;53.130;8.158;2023-04-03T05:32:26;2.13;;;1.63;;
71187;SDS011;58893;53.130;8.158;2023-04-03T05:34:52;3.77;;;2.27;;
71187;SDS011;58893;53.130;8.158;2023-04-03T05:37:18;7.37;;;2.50;;
71187;SDS011;58893;53.130;8.158;2023-04-03T05:39:44;2.60;;;1.43;;
71187;SDS011;58893;53.130;8.158;2023-04-03T05:42:10;3.90;;;1.83;;
71187;SDS011;58893;53.130;8.158;2023-04-03T05:44:36;4.63;;;2.20;;
71187;SDS011;58893;53.130;8.158;2023-04-03T05:47:02;5.10;;;1.90;;
71187;SDS011;58893;53.130;8.158;2023-04-03T05:49:28;3.10;;;1.73;;
71187;SDS011;58893;53.130;8.158;2023-04-03T05:51:54;5.13;;;2.00;;
71187;SDS011;58893;53.130;8.158;2023-04-03T05:54:21;9.20;;;2.23;;
71187;SDS011;58893;53.130;8.158;2023-04-03T05:56:50;6.83;;;1.70;;
71187;SDS011;58893;53.130;8.158;2023-04-03T05:59:16;8.53;;;3.00;;
71187;SDS011;58893;53.130;8.158;2023-04-03T06:01:42;3.10;;;1.90;;
71187;SDS011;58893;53.130;8.158;2023-04-03T06:04:08;5.90;;;2.10;;
71187;SDS011;58893;53.130;8.158;2023-04-03T06:06:44;14.83;;;2.40;;
71187;SDS011;58893;53.130;8.158;2023-04-03T06:09:13;9.20;;;2.57;;
71187;SDS011;58893;53.130;8.158;2023-04-03T06:11:41;7.27;;;2.57;;
71187;SDS011;58893;53.130;8.158;2023-04-03T06:14:07;7.30;;;1.77;;
71187;SDS011;58893;53.130;8.158;2023-04-03T06:16:33;4.47;;;1.70;;
71187;SDS011;58893;53.130;8.158;2023-04-03T06:18:59;8.30;;;2.27;;
71187;SDS011;58893;53.130;8.158;2023-04-03T06:21:25;6.73;;;1.60;;
71187;SDS011;58893;53.130;8.158;2023-04-03T06:23:51;7.03;;;2.20;;
71187;SDS011;58893;53.130;8.158;2023-04-03T06:26:17;19.03;;;2.30;;
71187;SDS011;58893;53.130;8.158;2023-04-03T06:28:42;4.03;;;1.70;;
71187;SDS011;58893;53.130;8.158;2023-04-03T06:31:08;5.27;;;2.03;;
71187;SDS011;58893;53.130;8.158;2023-04-03T06:33:34;4.77;;;2.00;;
71187;SDS011;58893;53.130;8.158;2023-04-03T06:36:02;8.07;;;2.30;;
71187;SDS011;58893;53.130;8.158;2023-04-03T06:38:29;7.37;;;1.93;;
71187;SDS011;58893;53.130;8.158;2023-04-03T06:40:55;4.93;;;2.00;;
71187;SDS011;58893;53.130;8.158;2023-04-03T06:43:21;7.50;;;2.37;;
71187;SDS011;58893;53.130;8.158;2023-04-03T06:45:47;4.57;;;2.30;;
71187;SDS011;58893;53.130;8.158;2023-04-03T06:48:12;4.77;;;2.20;;
71187;SDS011;58893;53.130;8.158;2023-04-03T06:50:38;10.17;;;2.60;;
71187;SDS011;58893;53.130;8.158;2023-04-03T06:53:05;5.00;;;2.67;;
71187;SDS011;58893;53.130;8.158;2023-04-03T06:55:31;6.40;;;2.23;;
71187;SDS011;58893;53.130;8.158;2023-04-03T06:57:57;7.60;;;2.33;;
71187;SDS011;58893;53.130;8.158;2023-04-03T07:00:22;8.03;;;2.63;;
71187;SDS011;58893;53.130;8.158;2023-04-03T07:02:48;5.00;;;2.50;;
71187;SDS011;58893;53.130;8.158;2023-04-03T07:05:14;5.60;;;1.83;;
71187;SDS011;58893;53.130;8.158;2023-04-03T07:07:39;3.77;;;1.90;;
71187;SDS011;58893;53.130;8.158;2023-04-03T07:10:06;6.60;;;2.40;;
71187;SDS011;58893;53.130;8.158;2023-04-03T07:12:32;4.80;;;2.27;;
71187;SDS011;58893;53.130;8.158;2023-04-03T07:14:58;5.40;;;2.27;;
71187;SDS011;58893;53.130;8.158;2023-04-03T07:17:24;5.37;;;2.10;;
71187;SDS011;58893;53.130;8.158;2023-04-03T07:19:50;4.50;;;2.10;;
71187;SDS011;58893;53.130;8.158;2023-04-03T07:22:16;15.93;;;2.57;;
71187;SDS011;58893;53.130;8.158;2023-04-03T07:24:42;9.70;;;2.97;;
71187;SDS011;58893;53.130;8.158;2023-04-03T07:27:08;4.33;;;2.70;;
71187;SDS011;58893;53.130;8.158;2023-04-03T07:29:35;6.73;;;2.47;;
71187;SDS011;58893;53.130;8.158;2023-04-03T07:32:01;8.20;;;2.47;;
71187;SDS011;58893;53.130;8.158;2023-04-03T07:34:27;6.10;;;2.10;;
71187;SDS011;58893;53.130;8.158;2023-04-03T07:36:53;2.97;;;2.60;;
71187;SDS011;58893;53.130;8.158;2023-04-03T07:39:18;3.13;;;1.53;;
71187;SDS011;58893;53.130;8.158;2023-04-03T07:41:44;16.47;;;2.33;;
71187;SDS011;58893;53.130;8.158;2023-04-03T07:44:10;3.53;;;1.30;;
71187;SDS011;58893;53.130;8.158;2023-04-03T07:46:36;6.10;;;1.70;;
71187;SDS011;58893;53.130;8.158;2023-04-03T07:49:03;9.67;;;2.40;;
71187;SDS011;58893;53.130;8.158;2023-04-03T07:51:28;13.97;;;2.40;;
71187;SDS011;58893;53.130;8.158;2023-04-03T07:53:55;3.17;;;1.60;;
71187;SDS011;58893;53.130;8.158;2023-04-03T07:56:20;2.97;;;1.70;;
71187;SDS011;58893;53.130;8.158;2023-04-03T07:58:47;5.90;;;2.33;;
71187;SDS011;58893;53.130;8.158;2023-04-03T08:01:13;6.30;;;2.73;;
71187;SDS011;58893;53.130;8.158;2023-04-03T08:03:39;4.40;;;1.87;;
71187;SDS011;58893;53.130;8.158;2023-04-03T08:06:05;4.73;;;2.00;;
71187;SDS011;58893;53.130;8.158;2023-04-03T08:08:32;9.23;;;2.77;;
71187;SDS011;58893;53.130;8.158;2023-04-03T08:10:59;9.33;;;1.87;;
71187;SDS011;58893;53.130;8.158;2023-04-03T08:13:25;7.10;;;2.07;;
71187;SDS011;58893;53.130;8.158;2023-04-03T08:15:51;10.63;;;2.00;;
71187;SDS011;58893;53.130;8.158;2023-04-03T08:18:17;5.07;;;2.23;;
71187;SDS011;58893;53.130;8.158;2023-04-03T08:20:46;4.43;;;2.07;;
71187;SDS011;58893;53.130;8.158;2023-04-03T08:23:12;4.70;;;1.70;;
71187;SDS011;58893;53.130;8.158;2023-04-03T08:25:42;6.10;;;1.80;;
71187;SDS011;58893;53.130;8.158;2023-04-03T08:28:08;5.80;;;1.87;;
71187;SDS011;58893;53.130;8.158;2023-04-03T08:30:35;5.63;;;1.80;;
71187;SDS011;58893;53.130;8.158;2023-04-03T08:33:03;3.33;;;2.00;;
71187;SDS011;58893;53.130;8.158;2023-04-03T08:35:29;7.17;;;2.17;;
71187;SDS011;58893;53.130;8.158;2023-04-03T08:37:55;5.40;;;1.97;;
71187;SDS011;58893;53.130;8.158;2023-04-03T08:40:21;22.20;;;2.43;;
71187;SDS011;58893;53.130;8.158;2023-04-03T08:42:50;5.27;;;2.07;;
71187;SDS011;58893;53.130;8.158;2023-04-03T08:45:49;2.33;;;1.30;;
71187;SDS011;58893;53.130;8.158;2023-04-03T08:48:34;6.13;;;1.47;;
71187;SDS011;58893;53.130;8.158;2023-04-03T08:51:04;8.23;;;2.27;;
71187;SDS011;58893;53.130;8.158;2023-04-03T08:53:40;7.20;;;1.90;;
71187;SDS011;58893;53.130;8.158;2023-04-03T08:56:09;7.77;;;2.50;;
71187;SDS011;58893;53.130;8.158;2023-04-03T09:01:19;2.27;;;1.70;;
71187;SDS011;58893;53.130;8.158;2023-04-03T09:03:48;5.93;;;1.30;;
71187;SDS011;58893;53.130;8.158;2023-04-03T09:06:26;5.27;;;1.87;;
71187;SDS011;58893;53.130;8.158;2023-04-03T09:26:11;2.20;;;1.10;;
71187;SDS011;58893;53.130;8.158;2023-04-03T09:28:41;3.97;;;1.00;;
71187;SDS011;58893;53.130;8.158;2023-04-03T09:31:26;1.60;;;1.30;;
71187;SDS011;58893;53.130;8.158;2023-04-03T09:33:56;2.20;;;0.93;;
71187;SDS011;58893;53.130;8.158;2023-04-03T09:36:39;5.17;;;1.33;;
71187;SDS011;58893;53.130;8.158;2023-04-03T09:39:20;2.20;;;0.93;;
71187;SDS011;58893;53.130;8.158;2023-04-03T09:44:54;9.30;;;1.47;;
71187;SDS011;58893;53.130;8.158;2023-04-03T09:47:36;2.87;;;1.30;;
71187;SDS011;58893;53.130;8.158;2023-04-03T09:50:17;1.10;;;1.00;;
71187;SDS011;58893;53.130;8.158;2023-04-03T09:52:47;3.30;;;1.30;;
71187;SDS011;58893;53.130;8.158;2023-04-03T09:55:15;2.50;;;1.13;;
71187;SDS011;58893;53.130;8.158;2023-04-03T09:57:46;3.40;;;1.50;;
71187;SDS011;58893;53.130;8.158;2023-04-03T10:03:05;0.93;;;0.83;;
71187;SDS011;58893;53.130;8.158;2023-04-03T10:05:48;2.17;;;1.03;;
71187;SDS011;58893;53.130;8.158;2023-04-03T10:13:12;6.83;;;1.63;;
71187;SDS011;58893;53.130;8.158;2023-04-03T10:15:48;1.30;;;0.90;;
71187;SDS011;58893;53.130;8.158;2023-04-03T10:18:31;2.00;;;1.23;;
71187;SDS011;58893;53.130;8.158;2023-04-03T10:21:05;2.73;;;1.00;;
71187;SDS011;58893;53.130;8.158;2023-04-03T10:23:43;3.97;;;1.00;;
71187;SDS011;58893;53.130;8.158;2023-04-03T10:29:02;2.67;;;0.90;;
71187;SDS011;58893;53.130;8.158;2023-04-03T10:31:45;17.27;;;1.47;;
71187;SDS011;58893;53.130;8.158;2023-04-03T10:34:23;2.27;;;1.00;;
71187;SDS011;58893;53.130;8.158;2023-04-03T10:39:43;3.07;;;1.17;;
71187;SDS011;58893;53.130;8.158;2023-04-03T10:55:51;3.13;;;0.80;;
71187;SDS011;58893;53.130;8.158;2023-04-03T10:58:29;1.00;;;0.83;;
71187;SDS011;58893;53.130;8.158;2023-04-03T11:01:02;2.90;;;1.20;;
71187;SDS011;58893;53.130;8.158;2023-04-03T11:03:38;1.33;;;1.07;;
71187;SDS011;58893;53.130;8.158;2023-04-03T11:06:13;1.20;;;0.87;;
71187;SDS011;58893;53.130;8.158;2023-04-03T11:08:44;1.97;;;1.20;;
71187;SDS011;58893;53.130;8.158;2023-04-03T11:11:17;1.87;;;1.10;;
71187;SDS011;58893;53.130;8.158;2023-04-03T11:14:11;2.90;;;0.97;;
71187;SDS011;58893;53.130;8.158;2023-04-03T11:16:47;2.20;;;1.00;;
71187;SDS011;58893;53.130;8.158;2023-04-03T11:19:21;4.30;;;1.43;;
71187;SDS011;58893;53.130;8.158;2023-04-03T11:35:47;1.67;;;1.00;;
71187;SDS011;58893;53.130;8.158;2023-04-03T11:41:12;1.37;;;0.90;;
71187;SDS011;58893;53.130;8.158;2023-04-03T11:43:43;3.00;;;1.00;;
71187;SDS011;58893;53.130;8.158;2023-04-03T11:46:21;1.60;;;1.03;;
71187;SDS011;58893;53.130;8.158;2023-04-03T11:48:48;3.03;;;1.10;;
71187;SDS011;58893;53.130;8.158;2023-04-03T11:53:53;3.00;;;1.10;;
71187;SDS011;58893;53.130;8.158;2023-04-03T11:59:15;4.03;;;1.20;;
71187;SDS011;58893;53.130;8.158;2023-04-03T12:01:53;1.40;;;0.90;;
71187;SDS011;58893;53.130;8.158;2023-04-03T12:04:21;2.40;;;0.97;;
71187;SDS011;58893;53.130;8.158;2023-04-03T12:06:51;1.00;;;0.77;;
71187;SDS011;58893;53.130;8.158;2023-04-03T12:09:28;2.17;;;1.17;;
71187;SDS011;58893;53.130;8.158;2023-04-03T12:11:59;1.70;;;0.80;;
71187;SDS011;58893;53.130;8.158;2023-04-03T12:14:45;7.10;;;1.20;;
71187;SDS011;58893;53.130;8.158;2023-04-03T12:17:18;1.93;;;1.30;;
71187;SDS011;58893;53.130;8.158;2023-04-03T12:19:51;2.27;;;0.70;;
71187;SDS011;58893;53.130;8.158;2023-04-03T12:22:18;2.40;;;0.80;;
71187;SDS011;58893;53.130;8.158;2023-04-03T12:24:49;1.50;;;1.27;;
71187;SDS011;58893;53.130;8.158;2023-04-03T12:27:22;1.27;;;1.17;;
71187;SDS011;58893;53.130;8.158;2023-04-03T12:35:16;3.00;;;1.00;;
71187;SDS011;58893;53.130;8.158;2023-04-03T12:43:20;4.23;;;1.30;;
71187;SDS011;58893;53.130;8.158;2023-04-03T12:48:39;7.13;;;1.20;;
71187;SDS011;58893;53.130;8.158;2023-04-03T12:51:15;0.87;;;0.87;;
71187;SDS011;58893;53.130;8.158;2023-04-03T12:53:45;2.13;;;1.00;;
71187;SDS011;58893;53.130;8.158;2023-04-03T12:56:18;2.63;;;0.60;;
71187;SDS011;58893;53.130;8.158;2023-04-03T12:58:44;1.00;;;0.90;;
71187;SDS011;58893;53.130;8.158;2023-04-03T13:01:11;5.60;;;1.40;;
71187;SDS011;58893;53.130;8.158;2023-04-03T13:03:56;1.30;;;1.20;;
71187;SDS011;58893;53.130;8.158;2023-04-03T13:06:27;0.90;;;0.63;;
71187;SDS011;58893;53.130;8.158;2023-04-03T13:08:57;5.80;;;1.30;;
71187;SDS011;58893;53.130;8.158;2023-04-03T13:11:25;1.30;;;0.93;;
71187;SDS011;58893;53.130;8.158;2023-04-03T13:13:59;3.30;;;1.20;;
71187;SDS011;58893;53.130;8.158;2023-04-03T13:16:28;1.00;;;0.77;;
71187;SDS011;58893;53.130;8.158;2023-04-03T13:18:54;1.43;;;0.80;;
71187;SDS011;58893;53.130;8.158;2023-04-03T13:21:21;4.40;;;0.93;;
71187;SDS011;58893;53.130;8.158;2023-04-03T13:23:59;1.17;;;0.87;;
71187;SDS011;58893;53.130;8.158;2023-04-03T13:26:28;6.97;;;1.03;;
71187;SDS011;58893;53.130;8.158;2023-04-03T13:28:57;2.30;;;1.10;;
71187;SDS011;58893;53.130;8.158;2023-04-03T13:31:34;3.10;;;0.93;;
71187;SDS011;58893;53.130;8.158;2023-04-03T13:34:03;3.00;;;1.20;;
71187;SDS011;58893;53.130;8.158;2023-04-03T13:36:40;3.03;;;1.63;;
71187;SDS011;58893;53.130;8.158;2023-04-03T13:41:42;2.67;;;1.30;;
71187;SDS011;58893;53.130;8.158;2023-04-03T13:46:52;3.70;;;1.20;;
71187;SDS011;58893;53.130;8.158;2023-04-03T13:51:51;2.60;;;1.30;;
71187;SDS011;58893;53.130;8.158;2023-04-03T13:54:22;5.87;;;1.20;;
71187;SDS011;58893;53.130;8.158;2023-04-03T13:56:52;7.77;;;0.90;;
71187;SDS011;58893;53.130;8.158;2023-04-03T13:59:22;2.03;;;0.90;;
71187;SDS011;58893;53.130;8.158;2023-04-03T14:04:44;2.60;;;1.00;;
71187;SDS011;58893;53.130;8.158;2023-04-03T14:07:11;3.10;;;1.30;;
71187;SDS011;58893;53.130;8.158;2023-04-03T14:09:37;2.20;;;0.83;;
71187;SDS011;58893;53.130;8.158;2023-04-03T14:12:07;1.67;;;1.07;;
71187;SDS011;58893;53.130;8.158;2023-04-03T14:14:50;3.17;;;1.00;;
71187;SDS011;58893;53.130;8.158;2023-04-03T14:17:18;1.87;;;1.17;;
71187;SDS011;58893;53.130;8.158;2023-04-03T14:19:46;2.33;;;1.30;;
71187;SDS011;58893;53.130;8.158;2023-04-03T14:22:18;8.00;;;0.83;;
71187;SDS011;58893;53.130;8.158;2023-04-03T14:24:53;5.83;;;1.23;;
71187;SDS011;58893;53.130;8.158;2023-04-03T14:27:24;2.73;;;1.17;;
71187;SDS011;58893;53.130;8.158;2023-04-03T14:29:52;2.47;;;1.40;;
71187;SDS011;58893;53.130;8.158;2023-04-03T14:32:20;4.73;;;1.10;;
71187;SDS011;58893;53.130;8.158;2023-04-03T14:34:47;1.93;;;1.00;;
71187;SDS011;58893;53.130;8.158;2023-04-03T14:37:15;4.00;;;0.90;;
71187;SDS011;58893;53.130;8.158;2023-04-03T14:39:47;2.57;;;1.13;;
71187;SDS011;58893;53.130;8.158;2023-04-03T14:42:18;1.03;;;0.93;;
71187;SDS011;58893;53.130;8.158;2023-04-03T14:44:47;1.47;;;1.03;;
71187;SDS011;58893;53.130;8.158;2023-04-03T14:47:14;2.70;;;1.17;;
71187;SDS011;58893;53.130;8.158;2023-04-03T14:49:43;3.13;;;1.50;;
71187;SDS011;58893;53.130;8.158;2023-04-03T14:52:16;1.87;;;1.17;;
71187;SDS011;58893;53.130;8.158;2023-04-03T14:54:47;3.73;;;1.70;;
71187;SDS011;58893;53.130;8.158;2023-04-03T14:57:13;4.60;;;1.10;;
71187;SDS011;58893;53.130;8.158;2023-04-03T14:59:40;9.10;;;1.33;;
71187;SDS011;58893;53.130;8.158;2023-04-03T15:04:54;2.03;;;1.27;;
71187;SDS011;58893;53.130;8.158;2023-04-03T15:07:21;7.67;;;1.00;;
71187;SDS011;58893;53.130;8.158;2023-04-03T15:09:48;3.13;;;1.30;;
71187;SDS011;58893;53.130;8.158;2023-04-03T15:12:15;4.10;;;1.30;;
71187;SDS011;58893;53.130;8.158;2023-04-03T15:14:40;5.00;;;1.27;;
71187;SDS011;58893;53.130;8.158;2023-04-03T15:17:06;2.60;;;1.00;;
71187;SDS011;58893;53.130;8.158;2023-04-03T15:19:41;1.03;;;0.93;;
71187;SDS011;58893;53.130;8.158;2023-04-03T15:22:06;6.53;;;1.20;;
71187;SDS011;58893;53.130;8.158;2023-04-03T15:24:37;6.30;;;1.23;;
71187;SDS011;58893;53.130;8.158;2023-04-03T15:27:03;2.90;;;1.87;;
71187;SDS011;58893;53.130;8.158;2023-04-03T15:29:29;3.47;;;1.47;;
71187;SDS011;58893;53.130;8.158;2023-04-03T15:31:54;1.27;;;0.87;;
71187;SDS011;58893;53.130;8.158;2023-04-03T15:34:20;8.73;;;1.60;;
71187;SDS011;58893;53.130;8.158;2023-04-03T15:36:46;4.40;;;1.10;;
71187;SDS011;58893;53.130;8.158;2023-04-03T15:39:12;1.57;;;0.90;;
71187;SDS011;58893;53.130;8.158;2023-04-03T15:41:37;3.30;;;1.57;;
71187;SDS011;58893;53.130;8.158;2023-04-03T15:44:03;3.50;;;1.13;;
71187;SDS011;58893;53.130;8.158;2023-04-03T15:46:29;2.27;;;1.00;;
71187;SDS011;58893;53.130;8.158;2023-04-03T15:48:55;3.63;;;1.40;;
71187;SDS011;58893;53.130;8.158;2023-04-03T15:51:20;3.23;;;1.23;;
71187;SDS011;58893;53.130;8.158;2023-04-03T15:53:46;1.93;;;0.80;;
71187;SDS011;58893;53.130;8.158;2023-04-03T15:56:12;3.17;;;1.20;;
71187;SDS011;58893;53.130;8.158;2023-04-03T15:58:38;7.27;;;1.30;;
71187;SDS011;58893;53.130;8.158;2023-04-03T16:01:03;1.70;;;1.30;;
71187;SDS011;58893;53.130;8.158;2023-04-03T16:03:30;5.03;;;1.50;;
71187;SDS011;58893;53.130;8.158;2023-04-03T16:05:56;4.77;;;1.50;;
71187;SDS011;58893;53.130;8.158;2023-04-03T16:08:22;5.60;;;1.43;;
71187;SDS011;58893;53.130;8.158;2023-04-03T16:10:47;1.20;;;1.10;;
71187;SDS011;58893;53.130;8.158;2023-04-03T16:13:13;2.90;;;1.20;;
71187;SDS011;58893;53.130;8.158;2023-04-03T16:15:40;3.40;;;1.33;;
71187;SDS011;58893;53.130;8.158;2023-04-03T16:18:06;8.67;;;1.80;;
71187;SDS011;58893;53.130;8.158;2023-04-03T16:20:33;5.40;;;1.53;;
71187;SDS011;58893;53.130;8.158;2023-04-03T16:22:59;4.63;;;1.40;;
71187;SDS011;58893;53.130;8.158;2023-04-03T16:25:25;2.10;;;1.63;;
71187;SDS011;58893;53.130;8.158;2023-04-03T16:27:51;1.80;;;1.23;;
71187;SDS011;58893;53.130;8.158;2023-04-03T16:30:17;2.87;;;1.30;;
71187;SDS011;58893;53.130;8.158;2023-04-03T16:32:43;2.77;;;2.00;;
71187;SDS011;58893;53.130;8.158;2023-04-03T16:35:09;2.20;;;1.30;;
71187;SDS011;58893;53.130;8.158;2023-04-03T16:37:36;3.23;;;1.60;;
71187;SDS011;58893;53.130;8.158;2023-04-03T16:40:02;3.73;;;1.60;;